createdAt,value
2022-11-07T00:00:25.797Z,11.01
2022-11-07T00:03:28.586Z,11.03
2022-11-07T00:06:32.626Z,11.01
2022-11-07T00:09:35.530Z,10.96
2022-11-07T00:12:38.180Z,10.90
2022-11-07T00:15:40.805Z,10.90
2022-11-07T00:18:43.439Z,10.86
2022-11-07T00:21:47.653Z,10.83
2022-11-07T00:24:50.283Z,10.83
2022-11-07T00:27:52.888Z,10.89
2022-11-07T00:30:55.525Z,10.90
2022-11-07T00:33:59.824Z,10.87
2022-11-07T00:37:03.921Z,10.89
2022-11-07T00:40:08.092Z,10.88
2022-11-07T00:43:10.794Z,10.94
2022-11-07T00:46:15.636Z,10.97
2022-11-07T00:49:18.312Z,10.95
2022-11-07T00:52:22.294Z,10.97
2022-11-07T00:55:25.004Z,11.03
2022-11-07T00:58:27.717Z,11.10
2022-11-07T01:01:32.510Z,11.11
2022-11-07T01:04:52.998Z,11.07
2022-11-07T01:07:56.992Z,11.11
2022-11-07T01:11:00.513Z,11.09
2022-11-07T01:14:04.169Z,11.08
2022-11-07T01:17:06.776Z,11.08
2022-11-07T01:20:10.710Z,11.05
2022-11-07T01:23:15.202Z,11.01
2022-11-07T01:26:18.482Z,11.05
2022-11-07T01:29:21.241Z,11.03
2022-11-07T01:32:24.036Z,10.98
2022-11-07T01:35:26.683Z,11.00
2022-11-07T01:38:30.787Z,10.93
2022-11-07T01:41:36.238Z,10.91
2022-11-07T01:44:54.805Z,10.83
2022-11-07T01:48:03.538Z,10.88
2022-11-07T01:51:07.490Z,10.89
2022-11-07T01:54:13.325Z,10.86
2022-11-07T01:57:21.322Z,10.95
2022-11-07T02:00:25.168Z,11.04
2022-11-07T02:03:27.825Z,11.02
2022-11-07T02:06:39.773Z,11.06
2022-11-07T02:09:44.379Z,11.11
2022-11-07T02:12:47.116Z,11.08
2022-11-07T02:15:49.847Z,11.07
2022-11-07T02:18:52.758Z,11.14
2022-11-07T02:22:02.715Z,11.13
2022-11-07T02:25:12.438Z,11.11
2022-11-07T02:28:16.882Z,11.16
2022-11-07T02:31:19.572Z,11.16
2022-11-07T02:34:22.346Z,11.21
2022-11-07T02:37:29.160Z,11.21
2022-11-07T02:40:36.093Z,11.24
2022-11-07T02:43:44.737Z,11.28
2022-11-07T02:46:49.812Z,11.29
2022-11-07T02:49:54.679Z,11.33
2022-11-07T02:52:59.413Z,11.39
2022-11-07T02:56:06.050Z,11.47
2022-11-07T02:59:11.050Z,11.46
2022-11-07T03:02:16.975Z,11.48
2022-11-07T03:05:22.854Z,11.50
2022-11-07T03:08:27.865Z,11.60
2022-11-07T03:11:34.060Z,11.64
2022-11-07T03:14:39.291Z,11.64
2022-11-07T03:17:43.946Z,11.61
2022-11-07T03:20:49.338Z,11.61
2022-11-07T03:23:54.498Z,11.61
2022-11-07T03:27:01.790Z,11.68
2022-11-07T03:30:07.140Z,11.67
2022-11-07T03:33:12.214Z,11.75
2022-11-07T03:36:17.181Z,11.69
2022-11-07T03:39:25.596Z,11.66
2022-11-07T03:42:32.533Z,11.67
2022-11-07T03:45:37.193Z,11.68
2022-11-07T03:48:42.249Z,11.73
2022-11-07T03:51:47.623Z,11.73
2022-11-07T03:54:52.536Z,11.75
2022-11-07T03:57:59.303Z,11.74
2022-11-07T04:01:04.533Z,11.76
2022-11-07T04:04:09.594Z,11.67
2022-11-07T04:07:14.113Z,11.73
2022-11-07T04:10:19.781Z,11.71
2022-11-07T04:13:42.885Z,11.72
2022-11-07T04:17:09.944Z,11.67
2022-11-07T04:20:14.815Z,11.72
2022-11-07T04:23:19.768Z,11.60
2022-11-07T04:26:40.933Z,11.58
2022-11-07T04:29:47.554Z,11.50
2022-11-07T04:32:54.320Z,11.50
2022-11-07T04:35:59.137Z,11.42
2022-11-07T04:39:06.051Z,11.39
2022-11-07T04:42:11.086Z,11.32
2022-11-07T04:45:18.046Z,11.23
2022-11-07T04:48:23.032Z,11.16
2022-11-07T04:51:28.178Z,11.04
2022-11-07T04:54:32.886Z,10.94
2022-11-07T04:57:37.528Z,10.80
2022-11-07T05:00:43.584Z,10.69
2022-11-07T05:03:48.188Z,10.62
2022-11-07T05:06:52.879Z,10.50
2022-11-07T05:09:57.633Z,10.41
2022-11-07T05:13:02.353Z,10.34
2022-11-07T05:16:13.567Z,10.25
2022-11-07T05:19:19.605Z,10.15
2022-11-07T05:22:37.901Z,10.09
2022-11-07T05:25:43.494Z,10.01
2022-11-07T05:28:50.930Z,9.93
2022-11-07T05:31:57.083Z,9.94
2022-11-07T05:35:02.434Z,9.89
2022-11-07T05:38:08.154Z,9.84
2022-11-07T05:41:13.415Z,9.82
2022-11-07T05:44:18.281Z,9.78
2022-11-07T05:47:25.066Z,9.76
2022-11-07T05:50:32.778Z,9.66
2022-11-07T05:53:37.575Z,9.63
2022-11-07T05:56:44.686Z,9.61
2022-11-07T05:59:49.207Z,9.61
2022-11-07T06:03:00.874Z,9.57
2022-11-07T06:06:05.569Z,9.52
2022-11-07T06:09:10.315Z,9.46
2022-11-07T06:12:18.249Z,9.44
2022-11-07T06:15:23.399Z,9.41
2022-11-07T06:18:29.981Z,9.45
2022-11-07T06:21:36.184Z,9.44
2022-11-07T06:24:40.756Z,9.46
2022-11-07T06:27:45.442Z,9.50
2022-11-07T06:30:49.943Z,9.57
2022-11-07T06:33:56.362Z,9.63
2022-11-07T06:37:03.346Z,9.66
2022-11-07T06:40:09.154Z,9.69
2022-11-07T06:43:16.325Z,9.71
2022-11-07T06:46:23.543Z,9.73
2022-11-07T06:49:29.971Z,9.79
2022-11-07T06:52:35.024Z,9.86
2022-11-07T06:55:40.430Z,10.00
2022-11-07T06:58:44.997Z,10.11
2022-11-07T07:01:51.543Z,10.16
2022-11-07T07:04:58.014Z,10.22
2022-11-07T07:08:03.590Z,10.31
2022-11-07T07:11:11.090Z,10.45
2022-11-07T07:14:15.969Z,10.55
2022-11-07T07:17:22.624Z,10.67
2022-11-07T07:20:29.306Z,10.77
2022-11-07T07:23:34.969Z,10.91
2022-11-07T07:26:40.085Z,11.04
2022-11-07T07:29:45.519Z,11.10
2022-11-07T07:32:50.765Z,11.19
2022-11-07T07:35:57.035Z,11.26
2022-11-07T07:39:01.999Z,11.41
2022-11-07T07:42:06.924Z,11.49
2022-11-07T07:45:12.980Z,11.59
2022-11-07T07:48:17.530Z,11.66
2022-11-07T07:51:23.817Z,11.76
2022-11-07T07:54:31.570Z,11.84
2022-11-07T07:57:41.543Z,11.96
2022-11-07T08:00:46.266Z,12.07
2022-11-07T08:04:01.311Z,12.13
2022-11-07T08:07:08.949Z,12.29
2022-11-07T08:10:39.740Z,12.37
2022-11-07T08:13:39.366Z,12.46
2022-11-07T08:16:46.823Z,12.47
2022-11-07T08:19:51.801Z,12.54
2022-11-07T08:23:04.165Z,12.56
2022-11-07T08:26:09.346Z,12.60
2022-11-07T08:29:14.136Z,12.64
2022-11-07T08:32:18.786Z,12.62
2022-11-07T08:35:23.941Z,12.60
2022-11-07T08:38:32.204Z,12.64
2022-11-07T08:41:37.561Z,12.61
2022-11-07T08:44:45.788Z,12.65
2022-11-07T08:47:50.653Z,12.70
2022-11-07T08:50:56.562Z,12.76
2022-11-07T08:54:03.558Z,12.80
2022-11-07T08:57:08.322Z,12.87
2022-11-07T09:00:14.518Z,12.90
2022-11-07T09:06:45.474Z,13.08
2022-11-07T09:09:53.141Z,13.09
2022-11-07T09:12:58.506Z,13.17
2022-11-07T09:16:06.574Z,13.18
2022-11-07T09:19:13.819Z,13.22
2022-11-07T09:22:25.013Z,13.26
2022-11-07T09:25:34.346Z,13.28
2022-11-07T09:28:43.672Z,13.39
2022-11-07T09:31:52.752Z,13.39
2022-11-07T09:35:05.054Z,13.44
2022-11-07T09:38:10.864Z,13.43
2022-11-07T09:41:28.014Z,13.45
2022-11-07T09:44:52.892Z,13.49
2022-11-07T09:48:02.446Z,13.51
2022-11-07T09:51:08.462Z,13.53
2022-11-07T09:54:18.105Z,13.53
2022-11-07T09:57:27.903Z,13.52
2022-11-07T10:00:37.589Z,13.52
2022-11-07T10:04:10.160Z,13.59
2022-11-07T10:07:19.825Z,13.62
2022-11-07T10:10:41.046Z,13.62
2022-11-07T10:14:06.635Z,13.69
2022-11-07T10:17:21.000Z,13.76
2022-11-07T10:20:36.867Z,13.78
2022-11-07T10:23:56.385Z,13.83
2022-11-07T10:27:01.518Z,13.96
2022-11-07T10:30:21.133Z,14.09
2022-11-07T10:33:37.010Z,14.12
2022-11-07T10:36:42.981Z,14.16
2022-11-07T10:39:48.372Z,14.21
2022-11-07T10:42:57.303Z,14.29
2022-11-07T10:46:05.644Z,14.38
2022-11-07T10:49:23.048Z,14.44
2022-11-07T10:52:28.683Z,14.51
2022-11-07T10:55:51.765Z,14.78
2022-11-07T10:58:56.516Z,15.09
2022-11-07T11:02:03.940Z,15.28
2022-11-07T11:05:24.604Z,15.45
2022-11-07T11:08:32.787Z,15.51
2022-11-07T11:11:37.887Z,15.50
2022-11-07T11:14:44.171Z,15.73
2022-11-07T11:18:01.006Z,15.84
2022-11-07T11:21:07.368Z,16.01
2022-11-07T11:24:34.102Z,16.19
2022-11-07T11:27:41.617Z,16.11
2022-11-07T11:30:50.019Z,16.09
2022-11-07T11:34:01.165Z,16.08
2022-11-07T11:37:11.084Z,16.03
2022-11-07T11:40:21.026Z,15.84
2022-11-07T11:43:29.356Z,15.76
2022-11-07T11:46:41.264Z,15.63
2022-11-07T11:49:53.379Z,15.63
2022-11-07T11:52:59.845Z,15.51
2022-11-07T11:56:21.298Z,15.48
2022-11-07T11:59:49.130Z,15.51
2022-11-07T12:03:38.257Z,15.69
2022-11-07T12:06:49.126Z,15.98
2022-11-07T12:09:59.212Z,16.32
2022-11-07T12:13:13.765Z,16.49
2022-11-07T12:16:28.928Z,16.62
2022-11-07T12:19:43.681Z,16.69
2022-11-07T12:23:03.060Z,16.65
2022-11-07T12:26:16.420Z,17.09
2022-11-07T12:29:30.429Z,18.22
2022-11-07T12:32:45.561Z,18.64
2022-11-07T12:35:55.652Z,19.07
2022-11-07T12:39:28.082Z,20.12
2022-11-07T12:42:53.748Z,20.03
2022-11-07T12:46:12.509Z,19.18
2022-11-07T12:49:51.656Z,18.15
2022-11-07T12:53:19.104Z,17.92
2022-11-07T12:56:33.541Z,18.24
2022-11-07T12:59:42.612Z,19.00
2022-11-07T13:03:01.014Z,19.33
2022-11-07T13:06:26.533Z,18.95
2022-11-07T13:09:36.166Z,18.49
2022-11-07T13:12:50.000Z,18.09
2022-11-07T13:16:15.110Z,17.79
2022-11-07T13:19:32.884Z,17.56
2022-11-07T13:22:41.522Z,17.24
2022-11-07T13:25:48.351Z,16.82
2022-11-07T13:29:02.363Z,16.57
2022-11-07T13:32:10.049Z,16.31
2022-11-07T13:35:46.904Z,16.04
2022-11-07T13:39:11.205Z,15.87
2022-11-07T13:45:54.010Z,15.61
2022-11-07T13:49:15.502Z,15.53
2022-11-07T13:52:26.518Z,15.50
2022-11-07T13:55:51.319Z,15.45
2022-11-07T13:59:09.175Z,15.39
2022-11-07T14:02:28.585Z,15.41
2022-11-07T14:05:36.268Z,15.46
2022-11-07T14:08:46.434Z,15.49
2022-11-07T14:12:08.661Z,15.53
2022-11-07T14:15:20.243Z,15.52
2022-11-07T14:18:39.530Z,15.51
2022-11-07T14:21:48.460Z,15.51
2022-11-07T14:25:00.919Z,15.47
2022-11-07T14:28:09.562Z,15.42
2022-11-07T14:31:20.324Z,15.43
2022-11-07T14:34:28.868Z,15.35
2022-11-07T14:37:37.025Z,15.24
2022-11-07T14:40:43.930Z,15.22
2022-11-07T14:43:50.382Z,15.15
2022-11-07T14:46:56.526Z,15.14
2022-11-07T14:50:03.863Z,15.15
2022-11-07T14:53:12.737Z,15.11
2022-11-07T14:56:21.782Z,15.08
2022-11-07T14:59:33.624Z,15.07
2022-11-07T15:02:38.685Z,14.97
2022-11-07T15:05:47.925Z,14.96
2022-11-07T15:09:01.066Z,14.97
2022-11-07T15:12:17.361Z,14.94
2022-11-07T15:15:24.150Z,14.91
2022-11-07T15:18:29.997Z,14.97
2022-11-07T15:21:38.317Z,14.90
2022-11-07T15:24:45.293Z,14.80
2022-11-07T15:27:50.476Z,14.71
2022-11-07T15:30:57.421Z,14.65
2022-11-07T15:34:06.742Z,14.67
2022-11-07T15:37:14.369Z,14.57
2022-11-07T15:40:21.895Z,14.55
2022-11-07T15:43:27.581Z,14.45
2022-11-07T15:46:37.043Z,14.42
2022-11-07T15:49:41.775Z,14.34
2022-11-07T15:52:49.221Z,14.27
2022-11-07T15:55:54.581Z,14.23
2022-11-07T15:59:00.278Z,14.18
2022-11-07T16:02:05.589Z,14.12
2022-11-07T16:05:10.670Z,14.05
2022-11-07T16:08:20.283Z,13.97
2022-11-07T16:11:25.434Z,13.89
2022-11-07T16:14:43.367Z,13.81
2022-11-07T16:17:49.465Z,13.69
2022-11-07T16:20:55.505Z,13.56
2022-11-07T16:24:02.906Z,13.38
2022-11-07T16:27:07.916Z,13.26
2022-11-07T16:30:17.383Z,13.10
2022-11-07T16:33:22.551Z,12.94
2022-11-07T16:36:31.003Z,12.79
2022-11-07T16:39:37.256Z,12.66
2022-11-07T16:42:42.213Z,12.49
2022-11-07T16:45:48.925Z,12.42
2022-11-07T16:48:56.011Z,12.34
2022-11-07T16:52:01.090Z,12.23
2022-11-07T16:55:08.381Z,12.13
2022-11-07T16:58:25.613Z,12.09
2022-11-07T17:01:31.689Z,12.03
2022-11-07T17:04:36.516Z,11.95
2022-11-07T17:07:41.246Z,11.88
2022-11-07T17:10:47.517Z,11.88
2022-11-07T17:13:52.610Z,11.85
2022-11-07T17:17:00.661Z,11.81
2022-11-07T17:20:05.646Z,11.75
2022-11-07T17:23:10.367Z,11.68
2022-11-07T17:26:20.138Z,11.70
2022-11-07T17:29:24.989Z,11.67
2022-11-07T17:32:29.746Z,11.67
2022-11-07T17:35:35.094Z,11.64
2022-11-07T17:38:40.031Z,11.61
2022-11-07T17:41:47.341Z,11.57
2022-11-07T17:44:51.965Z,11.54
2022-11-07T17:47:57.643Z,11.53
2022-11-07T17:51:02.179Z,11.46
2022-11-07T17:54:08.124Z,11.45
2022-11-07T17:57:16.013Z,11.50
2022-11-07T18:00:24.212Z,11.49
2022-11-07T18:03:29.403Z,11.50
2022-11-07T18:06:36.735Z,11.51
2022-11-07T18:09:42.671Z,11.55
2022-11-07T18:12:50.083Z,11.62
2022-11-07T18:15:55.002Z,11.71
2022-11-07T18:19:01.654Z,11.80
2022-11-07T18:22:06.953Z,11.86
2022-11-07T18:25:11.953Z,11.89
2022-11-07T18:28:18.437Z,11.94
2022-11-07T18:31:24.950Z,11.95
2022-11-07T18:34:30.351Z,11.91
2022-11-07T18:37:35.197Z,11.85
2022-11-07T18:40:40.248Z,11.81
2022-11-07T18:43:46.580Z,11.74
2022-11-07T18:46:51.429Z,11.64
2022-11-07T18:49:57.605Z,11.56
2022-11-07T18:53:02.422Z,11.45
2022-11-07T18:56:09.482Z,11.32
2022-11-07T18:59:15.882Z,11.21
2022-11-07T19:02:20.644Z,11.16
2022-11-07T19:05:25.805Z,11.13
2022-11-07T19:08:31.709Z,11.09
2022-11-07T19:11:36.685Z,11.04
2022-11-07T19:14:43.559Z,11.01
2022-11-07T19:17:48.665Z,10.98
2022-11-07T19:20:55.908Z,10.92
2022-11-07T19:24:02.561Z,10.93
2022-11-07T19:27:07.305Z,10.95
2022-11-07T19:30:15.147Z,10.95
2022-11-07T19:33:20.696Z,10.97
2022-11-07T19:36:25.329Z,10.96
2022-11-07T19:39:31.016Z,10.97
2022-11-07T19:42:36.020Z,10.94
2022-11-07T19:45:43.960Z,10.90
2022-11-07T19:48:49.307Z,10.89
2022-11-07T19:51:54.714Z,10.80
2022-11-07T19:54:59.567Z,10.78
2022-11-07T19:58:04.325Z,10.73
2022-11-07T20:01:15.369Z,10.65
2022-11-07T20:04:21.421Z,10.59
2022-11-07T20:07:26.284Z,10.55
2022-11-07T20:10:31.628Z,10.58
2022-11-07T20:13:36.469Z,10.58
2022-11-07T20:16:42.977Z,10.60
2022-11-07T20:19:47.980Z,10.58
2022-11-07T20:22:52.826Z,10.49
2022-11-07T20:25:57.782Z,10.40
2022-11-07T20:29:03.912Z,10.35
2022-11-07T20:32:11.586Z,10.36
2022-11-07T20:35:16.010Z,10.35
2022-11-07T20:38:20.720Z,10.30
2022-11-07T20:41:27.564Z,10.23
2022-11-07T20:44:32.204Z,10.31
2022-11-07T20:47:39.569Z,10.26
2022-11-07T20:50:44.951Z,10.21
2022-11-07T20:53:50.786Z,10.15
2022-11-07T20:56:56.603Z,10.07
2022-11-07T21:00:01.773Z,10.03
2022-11-07T21:03:13.469Z,9.99
2022-11-07T21:06:18.714Z,9.88
2022-11-07T21:09:24.194Z,9.83
2022-11-07T21:12:29.836Z,9.78
2022-11-07T21:15:34.848Z,9.71
2022-11-07T21:18:43.553Z,9.66
2022-11-07T21:21:49.733Z,9.60
2022-11-07T21:24:54.611Z,9.54
2022-11-07T21:27:59.943Z,9.50
2022-11-07T21:31:07.268Z,9.49
2022-11-07T21:34:13.427Z,9.43
2022-11-07T21:37:18.547Z,9.39
2022-11-07T21:40:23.362Z,9.31
2022-11-07T21:43:29.516Z,9.23
2022-11-07T21:46:35.071Z,9.21
2022-11-07T21:49:41.837Z,9.16
2022-11-07T21:52:49.364Z,9.10
2022-11-07T21:55:54.239Z,9.10
2022-11-07T21:59:01.219Z,9.08
2022-11-07T22:02:05.999Z,9.05
2022-11-07T22:05:15.500Z,9.03
2022-11-07T22:08:24.038Z,9.06
2022-11-07T22:11:29.086Z,8.99
2022-11-07T22:14:33.798Z,8.96
2022-11-07T22:17:38.749Z,8.97
2022-11-07T22:20:45.318Z,8.95
2022-11-07T22:23:51.277Z,8.92
2022-11-07T22:26:57.643Z,8.94
2022-11-07T22:30:03.865Z,8.98
2022-11-07T22:33:08.970Z,8.94
2022-11-07T22:36:15.773Z,8.89
2022-11-07T22:39:20.533Z,8.85
2022-11-07T22:42:25.455Z,8.83
2022-11-07T22:45:30.303Z,8.73
2022-11-07T22:48:35.500Z,8.67
2022-11-07T22:51:42.478Z,8.64
2022-11-07T22:54:47.281Z,8.64
2022-11-07T22:57:53.941Z,8.54
2022-11-07T23:00:59.045Z,8.51
2022-11-07T23:04:04.340Z,8.50
2022-11-07T23:07:10.918Z,8.47
2022-11-07T23:10:16.413Z,8.43
2022-11-07T23:13:21.298Z,8.43
2022-11-07T23:16:32.350Z,8.42
2022-11-07T23:19:37.572Z,8.41
2022-11-07T23:22:43.579Z,8.39
2022-11-07T23:25:48.042Z,8.37
2022-11-07T23:28:53.770Z,8.38
2022-11-07T23:31:59.267Z,8.33
2022-11-07T23:35:04.536Z,8.34
2022-11-07T23:38:10.704Z,8.28
2022-11-07T23:41:16.772Z,8.26
2022-11-07T23:44:21.522Z,8.25
2022-11-07T23:47:46.244Z,8.20
2022-11-07T23:51:05.171Z,8.25
2022-11-07T23:54:28.069Z,8.21
2022-11-07T23:57:55.805Z,8.16
